Time;durP1;ratioP1;P1;durP2;ratioP2;P2;SDS_P1;SDS_P2;PMS_P1;PMS_P2;Temp;Humidity;BMP_temperature;BMP_pressure;BME280_temperature;BME280_humidity;BME280_pressure;Samples;Min_cycle;Max_cycle;Signal;HPM_P1;HPM_P2
2023/10/22 00:01:15;;;;;;;16.77;2.63;;;17.30;99.90;;;;;;5091065;28;20030;-74
2023/10/22 00:03:41;;;;;;;18.95;2.92;;;17.10;99.90;;;;;;5090946;28;20382;-75
2023/10/22 00:06:07;;;;;;;30.98;3.67;;;17.00;99.90;;;;;;5072849;28;20464;-75
2023/10/22 00:08:32;;;;;;;11.30;3.00;;;17.30;99.90;;;;;;5090975;28;20500;-74
2023/10/22 00:10:58;;;;;;;13.45;2.40;;;17.20;99.90;;;;;;5072779;28;20047;-74
2023/10/22 00:13:24;;;;;;;11.73;2.63;;;17.10;99.90;;;;;;5072537;28;20036;-74
2023/10/22 00:15:49;;;;;;;14.32;2.75;;;17.00;99.90;;;;;;5090730;28;20056;-74
2023/10/22 00:18:15;;;;;;;14.23;2.63;;;17.00;99.90;;;;;;5090727;28;20429;-75
2023/10/22 00:20:41;;;;;;;14.27;2.47;;;17.00;99.90;;;;;;5072615;28;20070;-75
2023/10/22 00:23:07;;;;;;;13.13;2.53;;;17.10;99.90;;;;;;5090633;28;20028;-74
2023/10/22 00:25:36;;;;;;;15.35;3.30;;;17.10;99.90;;;;;;5072649;28;20028;-74
2023/10/22 00:28:03;;;;;;;12.15;2.50;;;17.20;99.90;;;;;;5090713;28;20024;-74
2023/10/22 00:30:30;;;;;;;20.90;2.83;;;17.30;99.90;;;;;;5072623;28;20059;-74
2023/10/22 00:32:56;;;;;;;16.55;3.92;;;17.40;99.90;;;;;;5072503;28;20027;-74
2023/10/22 00:35:22;;;;;;;23.77;3.28;;;17.30;99.90;;;;;;5072505;28;20077;-74
2023/10/22 00:37:48;;;;;;;17.88;3.00;;;17.30;99.90;;;;;;5075766;28;20028;-74
2023/10/22 00:40:16;;;;;;;18.75;2.47;;;17.30;99.90;;;;;;5094770;28;20054;-75
2023/10/22 00:42:42;;;;;;;19.25;2.97;;;17.20;99.90;;;;;;5094852;28;20032;-75
2023/10/22 00:45:08;;;;;;;15.65;2.10;;;17.20;99.90;;;;;;5076408;28;20119;-74
2023/10/22 00:47:34;;;;;;;9.77;2.28;;;17.30;99.90;;;;;;5094300;28;20066;-74
2023/10/22 00:50:01;;;;;;;15.85;3.15;;;17.30;99.90;;;;;;5076462;28;20038;-74
2023/10/22 00:52:27;;;;;;;9.95;1.80;;;17.40;99.90;;;;;;5076099;28;20027;-74
2023/10/22 00:54:54;;;;;;;13.05;1.83;;;17.30;99.90;;;;;;5076676;28;20028;-75
2023/10/22 00:57:22;;;;;;;13.35;2.80;;;17.30;99.90;;;;;;5094395;28;20030;-75
2023/10/22 00:59:52;;;;;;;14.40;2.08;;;17.20;99.90;;;;;;5094407;28;20028;-75
2023/10/22 01:02:19;;;;;;;13.90;2.72;;;17.20;99.90;;;;;;5094424;28;20024;-75
2023/10/22 01:04:45;;;;;;;16.27;3.08;;;17.20;99.90;;;;;;5094255;28;20027;-75
2023/10/22 01:07:11;;;;;;;15.88;2.95;;;17.20;99.90;;;;;;5094363;28;20032;-74
2023/10/22 01:09:37;;;;;;;21.88;3.10;;;17.10;99.90;;;;;;5094309;28;20024;-75
2023/10/22 01:12:04;;;;;;;12.70;2.30;;;17.10;99.90;;;;;;5094200;28;20046;-74
2023/10/22 01:14:31;;;;;;;10.63;2.30;;;17.20;99.90;;;;;;5093948;28;20043;-74
2023/10/22 01:16:57;;;;;;;7.50;2.10;;;17.20;99.90;;;;;;5075826;28;20036;-75
2023/10/22 01:19:23;;;;;;;11.50;2.38;;;17.20;99.90;;;;;;5093874;28;20099;-74
2023/10/22 01:21:49;;;;;;;14.27;2.17;;;17.20;99.90;;;;;;5094049;28;20162;-74
2023/10/22 01:24:15;;;;;;;22.13;3.15;;;17.20;99.90;;;;;;5094054;28;20035;-75
2023/10/22 01:26:45;;;;;;;8.68;2.30;;;17.30;99.90;;;;;;5093707;28;20036;-74
2023/10/22 01:29:10;;;;;;;14.75;1.98;;;17.30;99.90;;;;;;5093975;28;20166;-75
2023/10/22 01:31:37;;;;;;;14.57;3.05;;;17.30;99.90;;;;;;5094137;28;20115;-75
2023/10/22 01:34:03;;;;;;;13.30;3.05;;;17.30;99.90;;;;;;5075532;28;20404;-74
2023/10/22 01:36:29;;;;;;;11.98;2.13;;;17.20;99.90;;;;;;5094233;28;20027;-74
2023/10/22 01:38:54;;;;;;;12.50;2.60;;;17.10;99.90;;;;;;5075439;28;20024;-75
2023/10/22 01:41:20;;;;;;;11.93;2.80;;;17.00;99.90;;;;;;5075729;28;20396;-74
2023/10/22 01:43:46;;;;;;;16.42;2.42;;;17.20;99.90;;;;;;5093624;28;20051;-75
2023/10/22 01:46:11;;;;;;;13.15;2.97;;;17.10;99.90;;;;;;5075372;28;20020;-74
2023/10/22 01:48:38;;;;;;;11.90;2.20;;;17.20;99.90;;;;;;5093427;28;20055;-75
2023/10/22 01:51:04;;;;;;;9.40;2.22;;;17.10;99.90;;;;;;5093485;28;20012;-75
2023/10/22 01:53:29;;;;;;;9.65;2.20;;;17.00;99.90;;;;;;5075168;28;20442;-74
2023/10/22 01:55:55;;;;;;;14.13;2.45;;;16.90;99.90;;;;;;5093447;28;20044;-74
2023/10/22 01:58:21;;;;;;;12.43;3.58;;;16.90;99.90;;;;;;5075175;28;20040;-74
2023/10/22 02:00:47;;;;;;;19.25;3.60;;;17.10;99.90;;;;;;5075127;28;20165;-75
2023/10/22 02:03:14;;;;;;;9.73;2.92;;;17.10;99.90;;;;;;5075122;28;20046;-74
2023/10/22 02:05:39;;;;;;;16.83;3.80;;;17.10;99.90;;;;;;5075015;28;20047;-75
2023/10/22 02:08:06;;;;;;;16.90;2.38;;;17.10;99.90;;;;;;5093094;28;20067;-75
2023/10/22 02:10:33;;;;;;;13.95;2.45;;;17.00;99.90;;;;;;5074781;28;20074;-75
2023/10/22 02:12:59;;;;;;;11.73;2.90;;;17.00;99.90;;;;;;5092729;28;20050;-73
2023/10/22 02:15:27;;;;;;;14.10;2.53;;;17.00;99.90;;;;;;5092908;28;20070;-75
2023/10/22 02:17:53;;;;;;;19.10;2.92;;;17.00;99.90;;;;;;5092995;28;20044;-74
2023/10/22 02:20:19;;;;;;;12.20;3.35;;;16.90;99.90;;;;;;5093108;28;20026;-75
2023/10/22 02:22:44;;;;;;;10.70;2.38;;;16.90;99.90;;;;;;5074715;28;20028;-75
2023/10/22 02:25:10;;;;;;;17.40;2.88;;;16.90;99.90;;;;;;5074661;28;20024;-74
2023/10/22 02:27:36;;;;;;;8.15;2.10;;;16.90;99.90;;;;;;5092623;28;20032;-74
2023/10/22 02:30:02;;;;;;;15.35;3.10;;;16.80;99.90;;;;;;5092792;28;20484;-75
2023/10/22 02:32:28;;;;;;;14.10;2.80;;;16.80;99.90;;;;;;5092721;28;20492;-74
2023/10/22 02:34:53;;;;;;;11.43;2.35;;;16.80;99.90;;;;;;5092641;28;20430;-75
2023/10/22 02:37:19;;;;;;;13.77;2.83;;;17.00;99.90;;;;;;5092572;28;20036;-75
2023/10/22 02:39:45;;;;;;;15.27;3.10;;;16.90;99.90;;;;;;5092591;28;20024;-75
2023/10/22 02:42:11;;;;;;;18.08;4.47;;;16.90;99.90;;;;;;5074585;28;20032;-75
2023/10/22 02:44:37;;;;;;;10.10;2.58;;;16.90;99.90;;;;;;5092445;28;20099;-75
2023/10/22 02:47:03;;;;;;;8.07;2.25;;;16.90;99.90;;;;;;5092449;28;20039;-75
2023/10/22 02:49:30;;;;;;;13.73;2.40;;;17.00;99.90;;;;;;5074250;28;20027;-75
2023/10/22 02:51:56;;;;;;;13.70;3.17;;;17.00;99.90;;;;;;5074010;28;20119;-75
2023/10/22 02:54:21;;;;;;;19.10;3.22;;;17.10;99.90;;;;;;5092162;28;20142;-75
2023/10/22 02:56:48;;;;;;;10.55;2.63;;;17.20;99.90;;;;;;5073985;28;20131;-75
2023/10/22 02:59:14;;;;;;;8.40;2.65;;;17.10;99.90;;;;;;5091667;28;20051;-75
2023/10/22 03:01:40;;;;;;;11.65;2.55;;;17.00;99.90;;;;;;5092357;28;20024;-75
2023/10/22 03:04:06;;;;;;;18.33;3.55;;;17.00;99.90;;;;;;5073798;28;20032;-75
2023/10/22 03:06:31;;;;;;;14.43;3.17;;;17.00;99.90;;;;;;5092056;28;20158;-75
2023/10/22 03:08:57;;;;;;;10.57;2.70;;;17.00;99.90;;;;;;5073805;28;20024;-75
2023/10/22 03:11:23;;;;;;;17.42;3.05;;;17.00;99.90;;;;;;5073699;28;20028;-74
2023/10/22 03:13:50;;;;;;;11.43;2.55;;;17.10;99.90;;;;;;5073553;28;20539;-75
2023/10/22 03:16:16;;;;;;;13.05;3.05;;;17.00;99.90;;;;;;5091736;28;20048;-75
2023/10/22 03:18:44;;;;;;;12.32;3.45;;;16.90;99.90;;;;;;5073533;28;20040;-75
2023/10/22 03:21:14;;;;;;;10.55;2.17;;;17.00;99.90;;;;;;5073663;28;20031;-74
2023/10/22 03:23:43;;;;;;;17.77;3.20;;;17.10;99.90;;;;;;5073388;28;20024;-75
2023/10/22 03:26:11;;;;;;;10.32;2.60;;;17.20;99.90;;;;;;5091705;28;20028;-75
2023/10/22 03:28:37;;;;;;;12.43;3.05;;;17.00;99.90;;;;;;5091655;28;20024;-75
2023/10/22 03:31:04;;;;;;;17.40;3.13;;;17.00;99.90;;;;;;5091268;28;20032;-75
2023/10/22 03:33:31;;;;;;;11.68;2.75;;;17.00;99.90;;;;;;5072918;28;20028;-75
2023/10/22 03:35:57;;;;;;;17.13;3.47;;;17.10;99.90;;;;;;5073200;28;20055;-75
2023/10/22 03:38:23;;;;;;;13.32;3.00;;;17.20;99.90;;;;;;5091372;28;20468;-74
2023/10/22 03:40:59;;;;;;;13.02;3.15;;;17.00;99.90;;;;;;5091497;28;20416;-75
2023/10/22 03:43:29;;;;;;;14.10;2.90;;;16.90;99.90;;;;;;5073067;28;20124;-74
2023/10/22 03:45:56;;;;;;;12.63;2.95;;;16.90;99.90;;;;;;5091224;28;20273;-74
2023/10/22 03:48:22;;;;;;;11.77;3.00;;;16.90;99.90;;;;;;5091088;28;20427;-75
2023/10/22 03:50:48;;;;;;;10.18;2.53;;;16.90;99.90;;;;;;5091225;28;20411;-74
2023/10/22 03:53:14;;;;;;;16.05;2.88;;;16.80;99.90;;;;;;5091135;28;20028;-74
2023/10/22 03:55:40;;;;;;;12.35;2.45;;;16.90;99.90;;;;;;5091198;28;20043;-75
2023/10/22 03:58:06;;;;;;;12.98;3.53;;;16.80;99.90;;;;;;5072552;28;20047;-75
2023/10/22 04:00:32;;;;;;;11.45;3.08;;;16.80;99.90;;;;;;5091073;28;20111;-74
2023/10/22 04:02:58;;;;;;;16.55;3.05;;;16.80;99.90;;;;;;5091001;28;20095;-75
2023/10/22 04:05:24;;;;;;;11.93;3.30;;;16.80;99.90;;;;;;5072807;28;20024;-74
2023/10/22 04:07:50;;;;;;;16.60;3.17;;;16.80;99.90;;;;;;5090678;28;20553;-75
2023/10/22 04:10:16;;;;;;;11.75;3.03;;;16.80;99.90;;;;;;5090677;28;20031;-75
2023/10/22 04:12:42;;;;;;;13.95;3.15;;;16.90;99.90;;;;;;5072001;28;20387;-75
2023/10/22 04:15:08;;;;;;;14.75;3.55;;;16.90;99.90;;;;;;5090818;28;20067;-74
2023/10/22 04:17:34;;;;;;;10.80;2.65;;;16.80;99.90;;;;;;5072677;28;20036;-75
2023/10/22 04:20:00;;;;;;;12.05;3.38;;;16.80;99.90;;;;;;5090482;28;20492;-75
2023/10/22 04:22:26;;;;;;;21.27;3.97;;;16.70;99.90;;;;;;5090816;28;20023;-75
2023/10/22 04:24:52;;;;;;;13.18;3.55;;;16.70;99.90;;;;;;5090725;28;20077;-75
2023/10/22 04:27:18;;;;;;;14.82;3.45;;;16.70;99.90;;;;;;5072382;28;20016;-75
2023/10/22 04:29:46;;;;;;;11.27;3.22;;;16.70;99.90;;;;;;5090722;28;20484;-75
2023/10/22 04:32:12;;;;;;;13.88;2.90;;;16.60;99.90;;;;;;5090756;28;20066;-74
2023/10/22 04:34:38;;;;;;;10.20;3.47;;;16.60;99.90;;;;;;5072530;28;20032;-76
2023/10/22 04:37:04;;;;;;;14.57;3.60;;;16.60;99.90;;;;;;5090522;28;20028;-75
2023/10/22 04:39:30;;;;;;;14.70;2.80;;;16.60;99.90;;;;;;5072419;28;20036;-75
2023/10/22 04:41:56;;;;;;;12.90;3.40;;;16.50;99.90;;;;;;5072511;28;20073;-75
2023/10/22 04:44:22;;;;;;;15.40;3.55;;;16.50;99.90;;;;;;5072310;28;20044;-74
2023/10/22 04:46:49;;;;;;;20.45;4.22;;;16.50;99.90;;;;;;5072340;28;20046;-74
2023/10/22 04:49:14;;;;;;;11.65;3.72;;;16.50;99.90;;;;;;5072002;28;20028;-74
2023/10/22 04:51:40;;;;;;;29.67;4.18;;;16.40;99.90;;;;;;5090413;28;20032;-75
2023/10/22 04:54:06;;;;;;;21.65;4.47;;;16.30;99.90;;;;;;5072358;28;20417;-74
2023/10/22 04:56:32;;;;;;;15.93;3.17;;;16.30;99.90;;;;;;5090426;28;20524;-75
2023/10/22 04:58:58;;;;;;;19.08;5.38;;;16.20;99.90;;;;;;5072251;28;20027;-75
2023/10/22 05:01:23;;;;;;;17.83;4.88;;;16.20;99.90;;;;;;5072314;28;20024;-74
2023/10/22 05:03:49;;;;;;;17.02;4.68;;;16.10;99.90;;;;;;5090130;28;20032;-75
2023/10/22 05:06:15;;;;;;;29.67;5.75;;;16.10;99.90;;;;;;5090425;28;20038;-74
2023/10/22 05:08:40;;;;;;;13.30;4.85;;;16.10;99.90;;;;;;5072049;28;20055;-73
2023/10/22 05:11:15;;;;;;;19.58;7.07;;;16.00;99.90;;;;;;5090337;28;20418;-74
2023/10/22 05:13:41;;;;;;;28.00;8.88;;;16.00;99.90;;;;;;5090138;28;20312;-74
2023/10/22 05:16:07;;;;;;;20.25;7.05;;;15.80;99.90;;;;;;5071987;28;20044;-74
2023/10/22 05:18:33;;;;;;;19.38;6.95;;;15.80;99.90;;;;;;5090251;28;20038;-74
2023/10/22 05:21:06;;;;;;;15.20;6.80;;;15.80;99.90;;;;;;5090273;28;20024;-73
2023/10/22 05:23:33;;;;;;;26.02;6.63;;;15.70;99.90;;;;;;5092538;28;20066;-74
2023/10/22 05:26:17;;;;;;;13.70;5.85;;;15.70;99.90;;;;;;5093820;28;20032;-74
2023/10/22 05:28:43;;;;;;;13.63;5.95;;;15.70;99.90;;;;;;5075644;28;20500;-74
2023/10/22 05:31:20;;;;;;;16.52;7.05;;;15.70;99.90;;;;;;5093973;28;20338;-75
2023/10/22 05:33:46;;;;;;;15.07;7.38;;;15.70;99.90;;;;;;5093750;28;20020;-74
2023/10/22 05:36:21;;;;;;;13.02;6.43;;;15.70;99.90;;;;;;5093776;28;20028;-74
2023/10/22 05:38:50;;;;;;;23.88;7.43;;;15.70;99.90;;;;;;5075573;28;20036;-74
2023/10/22 05:41:25;;;;;;;15.30;7.22;;;15.70;99.90;;;;;;5093415;28;20085;-75
2023/10/22 05:44:01;;;;;;;18.95;7.75;;;15.70;99.90;;;;;;5075427;28;20027;-74
2023/10/22 05:46:28;;;;;;;20.20;7.68;;;15.70;99.90;;;;;;5075398;28;20423;-75
2023/10/22 05:48:55;;;;;;;19.13;12.73;;;15.70;99.90;;;;;;5075377;28;20032;-75
2023/10/22 05:51:21;;;;;;;18.05;8.15;;;15.70;99.90;;;;;;5093442;28;20032;-74
2023/10/22 05:53:46;;;;;;;14.98;5.28;;;15.70;99.90;;;;;;5075109;28;20385;-75
2023/10/22 05:56:12;;;;;;;9.40;3.70;;;15.70;99.90;;;;;;5093437;28;20064;-75
2023/10/22 05:58:41;;;;;;;10.70;4.78;;;15.60;99.90;;;;;;5093269;28;20040;-75
2023/10/22 06:01:08;;;;;;;13.23;3.72;;;15.60;99.90;;;;;;5093333;28;20024;-74
2023/10/22 06:03:34;;;;;;;7.40;3.22;;;15.70;99.90;;;;;;5075309;28;20467;-74
2023/10/22 06:06:00;;;;;;;8.05;2.85;;;15.60;99.90;;;;;;5075064;28;20032;-75
2023/10/22 06:08:26;;;;;;;13.88;3.15;;;15.60;99.90;;;;;;5093173;28;20099;-75
2023/10/22 06:10:52;;;;;;;5.63;1.77;;;15.60;99.90;;;;;;5074974;28;20074;-75
2023/10/22 06:13:18;;;;;;;7.35;1.60;;;15.60;99.90;;;;;;5093105;28;20020;-75
2023/10/22 06:15:45;;;;;;;2.60;1.13;;;15.60;99.90;;;;;;5092863;28;20051;-75
2023/10/22 06:18:11;;;;;;;4.43;1.75;;;15.60;99.90;;;;;;5092974;28;20040;-75
2023/10/22 06:20:38;;;;;;;10.38;2.08;;;15.60;99.90;;;;;;5092864;28;20038;-75
2023/10/22 06:23:04;;;;;;;6.82;2.25;;;15.60;99.90;;;;;;5092880;28;20020;-74
2023/10/22 06:25:34;;;;;;;11.55;2.47;;;15.50;99.90;;;;;;5074791;28;20045;-75
2023/10/22 06:28:00;;;;;;;12.48;3.28;;;15.50;99.90;;;;;;5092889;28;20032;-74
2023/10/22 06:30:27;;;;;;;8.40;2.97;;;15.50;99.90;;;;;;5092845;28;20031;-74
2023/10/22 06:32:54;;;;;;;10.68;3.25;;;15.50;99.90;;;;;;5092673;28;20024;-74
2023/10/22 06:35:21;;;;;;;9.52;3.00;;;15.50;99.90;;;;;;5091740;28;20024;-74
2023/10/22 06:37:47;;;;;;;9.10;3.30;;;15.50;99.90;;;;;;5074390;28;20044;-75
2023/10/22 06:40:13;;;;;;;7.15;3.38;;;15.60;99.90;;;;;;5092615;28;20009;-75
2023/10/22 06:42:42;;;;;;;14.90;3.42;;;15.60;99.90;;;;;;5074489;28;20035;-75
2023/10/22 06:45:09;;;;;;;9.98;3.88;;;15.60;99.90;;;;;;5074474;28;20027;-75
2023/10/22 06:47:38;;;;;;;10.32;3.53;;;15.60;99.90;;;;;;5074214;28;20024;-74
2023/10/22 06:50:05;;;;;;;9.55;4.13;;;15.70;99.90;;;;;;5092433;28;20495;-75
2023/10/22 06:52:31;;;;;;;11.27;4.28;;;15.60;99.90;;;;;;5092292;28;20028;-74
2023/10/22 06:54:57;;;;;;;14.43;4.93;;;15.60;99.90;;;;;;5092353;28;20028;-75
2023/10/22 06:57:23;;;;;;;11.25;5.28;;;15.60;99.90;;;;;;5092121;28;20040;-75
2023/10/22 06:59:51;;;;;;;12.80;4.75;;;15.60;99.90;;;;;;5092270;28;20016;-75
2023/10/22 07:02:17;;;;;;;12.73;4.75;;;15.60;99.90;;;;;;5073837;28;20035;-74
2023/10/22 07:04:44;;;;;;;22.55;6.35;;;15.60;99.90;;;;;;5092124;28;20017;-75
2023/10/22 07:07:10;;;;;;;12.88;5.40;;;15.60;99.90;;;;;;5092038;28;20035;-75
2023/10/22 07:09:37;;;;;;;15.77;5.85;;;15.60;99.90;;;;;;5091974;28;20016;-74
2023/10/22 07:12:03;;;;;;;14.95;6.05;;;15.60;99.90;;;;;;5092015;28;20557;-75
2023/10/22 07:14:28;;;;;;;13.75;5.28;;;15.60;99.90;;;;;;5091646;28;20051;-74
2023/10/22 07:16:54;;;;;;;11.85;4.82;;;15.70;99.90;;;;;;5073252;28;20496;-75
2023/10/22 07:19:20;;;;;;;13.32;5.03;;;15.70;99.90;;;;;;5073542;28;20031;-75
2023/10/22 07:21:46;;;;;;;12.85;4.75;;;15.70;99.90;;;;;;5073564;28;20480;-75
2023/10/22 07:24:11;;;;;;;11.07;4.47;;;15.60;99.90;;;;;;5073389;28;20032;-74
2023/10/22 07:26:38;;;;;;;8.75;4.57;;;15.60;99.90;;;;;;5073594;28;20060;-75
2023/10/22 07:29:04;;;;;;;13.23;5.60;;;15.60;99.90;;;;;;5091638;28;20028;-75
2023/10/22 07:31:29;;;;;;;15.75;6.47;;;15.70;99.90;;;;;;5091503;28;20085;-75
2023/10/22 07:33:55;;;;;;;14.70;4.80;;;15.70;99.90;;;;;;5091457;28;20099;-75
2023/10/22 07:36:21;;;;;;;12.70;4.70;;;15.70;99.90;;;;;;5091463;28;20035;-75
2023/10/22 07:38:51;;;;;;;14.75;5.03;;;15.80;99.90;;;;;;5091356;28;20068;-75
2023/10/22 07:41:18;;;;;;;10.45;3.92;;;15.90;99.90;;;;;;5091557;28;20024;-75
2023/10/22 07:43:44;;;;;;;9.57;4.18;;;15.90;99.90;;;;;;5091071;28;20076;-74
2023/10/22 07:46:10;;;;;;;8.70;3.38;;;15.90;99.90;;;;;;5091179;28;20020;-76
2023/10/22 07:48:37;;;;;;;16.10;4.57;;;16.00;99.90;;;;;;5073156;28;20024;-75
2023/10/22 07:51:09;;;;;;;14.98;4.05;;;16.00;99.90;;;;;;5091262;28;20027;-75
2023/10/22 07:53:35;;;;;;;8.15;3.88;;;16.20;99.90;;;;;;5091112;28;20535;-74
2023/10/22 07:56:01;;;;;;;7.72;3.58;;;16.40;99.90;;;;;;5091246;28;20162;-75
2023/10/22 07:58:27;;;;;;;5.97;3.10;;;16.50;99.90;;;;;;5072999;28;20040;-75
2023/10/22 08:00:52;;;;;;;5.70;3.05;;;16.60;99.90;;;;;;5073614;28;20031;-75
2023/10/22 08:03:18;;;;;;;7.40;2.83;;;16.60;99.90;;;;;;5073171;28;20043;-75
2023/10/22 08:05:44;;;;;;;9.15;3.60;;;16.60;99.90;;;;;;5091015;28;20531;-75
2023/10/22 08:08:09;;;;;;;9.48;2.67;;;16.60;99.90;;;;;;5091496;28;20024;-75
2023/10/22 08:10:35;;;;;;;8.70;2.75;;;16.70;99.90;;;;;;5090872;28;20020;-75
2023/10/22 08:13:01;;;;;;;9.30;2.53;;;16.70;99.90;;;;;;5072658;28;20032;-75
2023/10/22 08:15:26;;;;;;;3.40;1.70;;;16.60;99.90;;;;;;5090674;28;20124;-75
2023/10/22 08:17:52;;;;;;;5.35;1.65;;;16.60;99.90;;;;;;5072627;28;20036;-75
2023/10/22 08:20:18;;;;;;;4.60;1.33;;;16.50;99.90;;;;;;5090528;28;20411;-76
2023/10/22 08:22:43;;;;;;;5.75;1.45;;;16.50;99.90;;;;;;5090824;28;20028;-75
2023/10/22 08:25:09;;;;;;;3.90;1.25;;;16.40;99.90;;;;;;5072676;28;20036;-75
2023/10/22 08:27:35;;;;;;;3.85;1.58;;;16.40;99.90;;;;;;5072475;28;20028;-75
2023/10/22 08:30:00;;;;;;;5.85;2.13;;;16.40;99.90;;;;;;5072603;28;20059;-75
2023/10/22 08:32:26;;;;;;;8.55;2.60;;;16.40;99.90;;;;;;5072291;28;20058;-75
2023/10/22 08:34:51;;;;;;;17.63;3.35;;;16.50;99.90;;;;;;5090655;28;20036;-75
2023/10/22 08:37:17;;;;;;;5.15;2.67;;;16.50;99.90;;;;;;5090646;28;20477;-75
2023/10/22 08:39:43;;;;;;;4.45;2.03;;;16.50;99.90;;;;;;5072426;28;20082;-75
2023/10/22 08:42:12;;;;;;;5.43;2.80;;;16.50;99.90;;;;;;5090569;28;20039;-75
2023/10/22 08:44:46;;;;;;;7.93;3.20;;;16.40;99.90;;;;;;5072387;28;20024;-75
2023/10/22 08:47:12;;;;;;;6.18;3.10;;;16.40;99.90;;;;;;5090525;28;20548;-74
2023/10/22 08:49:41;;;;;;;7.30;3.85;;;16.40;99.90;;;;;;5090570;28;20104;-75
2023/10/22 08:52:10;;;;;;;8.57;4.80;;;16.30;99.90;;;;;;5072312;28;20500;-75
2023/10/22 08:54:37;;;;;;;12.88;6.10;;;16.20;99.90;;;;;;5090595;28;20016;-75
2023/10/22 08:57:03;;;;;;;10.35;6.07;;;16.20;99.90;;;;;;5072681;28;20031;-74
2023/10/22 08:59:29;;;;;;;12.32;7.53;;;16.20;99.90;;;;;;5076313;28;20046;-75
2023/10/22 09:01:56;;;;;;;11.20;7.93;;;16.30;99.90;;;;;;5094427;28;20024;-75
2023/10/22 09:04:22;;;;;;;12.13;7.82;;;16.30;99.90;;;;;;5094437;28;20027;-75
2023/10/22 09:06:53;;;;;;;15.57;7.90;;;16.40;99.90;;;;;;5076248;28;20032;-75
2023/10/22 09:09:37;;;;;;;11.15;7.82;;;16.50;99.90;;;;;;5094251;28;20016;-75
2023/10/22 09:12:04;;;;;;;11.50;6.70;;;16.50;99.90;;;;;;5075905;28;20500;-75
2023/10/22 09:14:30;;;;;;;10.15;6.07;;;16.50;99.90;;;;;;5093609;28;20036;-75
2023/10/22 09:16:56;;;;;;;7.78;6.00;;;16.60;99.90;;;;;;5075938;28;20111;-75
2023/10/22 09:19:41;;;;;;;7.88;5.53;;;16.70;99.90;;;;;;5094198;28;20441;-74
2023/10/22 09:22:20;;;;;;;13.02;5.38;;;16.90;99.90;;;;;;5094082;28;20039;-74
2023/10/22 09:24:51;;;;;;;13.85;5.18;;;16.90;99.90;;;;;;5094078;28;20035;-75
2023/10/22 09:27:25;;;;;;;7.85;4.70;;;16.90;99.90;;;;;;5094041;28;20032;-75
2023/10/22 09:29:51;;;;;;;9.95;4.68;;;16.90;99.90;;;;;;5093962;28;20031;-74
2023/10/22 09:32:17;;;;;;;6.35;3.95;;;16.80;99.90;;;;;;5075795;28;20039;-75
2023/10/22 09:34:43;;;;;;;5.93;4.22;;;16.70;99.90;;;;;;5093817;28;20020;-75
2023/10/22 09:37:08;;;;;;;7.15;4.10;;;16.70;99.90;;;;;;5075760;28;20609;-75
2023/10/22 09:39:45;;;;;;;5.50;3.47;;;16.60;99.90;;;;;;5093801;28;20024;-74
2023/10/22 09:42:12;;;;;;;5.38;3.03;;;16.60;99.90;;;;;;5075399;28;20027;-75
2023/10/22 09:44:40;;;;;;;5.80;3.25;;;16.50;99.90;;;;;;5093671;28;20016;-74
2023/10/22 09:47:07;;;;;;;6.97;3.22;;;16.60;99.90;;;;;;5075439;28;20028;-74
2023/10/22 09:49:33;;;;;;;4.63;2.65;;;16.60;99.90;;;;;;5093729;28;20480;-74
2023/10/22 09:52:04;;;;;;;5.50;2.50;;;16.80;99.90;;;;;;5075245;28;20024;-75
2023/10/22 09:54:37;;;;;;;9.05;2.67;;;16.90;99.90;;;;;;5075579;28;20500;-74
2023/10/22 09:57:30;;;;;;;5.05;2.00;;;16.90;99.90;;;;;;5075231;28;20656;-73
2023/10/22 10:00:01;;;;;;;7.70;2.03;;;17.00;99.90;;;;;;5071899;28;20606;-75
2023/10/22 10:02:28;;;;;;;5.35;2.40;;;17.00;99.90;;;;;;5075045;28;20599;-75
2023/10/22 10:04:54;;;;;;;5.90;2.45;;;17.20;99.90;;;;;;5093408;28;20499;-75
2023/10/22 10:07:22;;;;;;;7.53;2.22;;;17.30;99.90;;;;;;5093318;28;20020;-75
2023/10/22 10:09:49;;;;;;;5.78;2.15;;;17.30;99.90;;;;;;5091784;28;20032;-74
2023/10/22 10:12:16;;;;;;;2.67;1.40;;;17.50;99.90;;;;;;5093096;28;20526;-74
2023/10/22 10:14:46;;;;;;;3.92;1.40;;;17.50;99.90;;;;;;5092912;28;20032;-74
2023/10/22 10:17:14;;;;;;;3.85;2.17;;;17.50;99.90;;;;;;5074731;28;20035;-74
2023/10/22 10:19:39;;;;;;;3.40;1.63;;;17.40;99.90;;;;;;5093024;28;20024;-75
2023/10/22 10:22:06;;;;;;;3.03;1.30;;;17.50;99.90;;;;;;5074671;28;20149;-75
2023/10/22 10:24:32;;;;;;;3.50;1.52;;;17.50;99.90;;;;;;5092844;28;20030;-75
2023/10/22 10:26:58;;;;;;;6.35;1.58;;;17.50;99.90;;;;;;5074668;28;20509;-75
2023/10/22 10:29:26;;;;;;;5.50;1.80;;;17.50;99.90;;;;;;5074649;28;20508;-74
2023/10/22 10:31:53;;;;;;;3.00;1.50;;;17.50;99.90;;;;;;5092755;28;20115;-75
2023/10/22 10:34:25;;;;;;;4.47;1.10;;;17.60;99.90;;;;;;5092595;28;20020;-75
2023/10/22 10:36:51;;;;;;;2.50;1.50;;;17.60;99.90;;;;;;5092535;28;20030;-74
2023/10/22 10:39:37;;;;;;;3.78;1.40;;;17.60;99.90;;;;;;5074431;28;20398;-75
2023/10/22 10:42:03;;;;;;;5.38;0.90;;;17.60;99.90;;;;;;5092613;28;20028;-75
2023/10/22 10:44:30;;;;;;;2.70;0.93;;;17.60;99.90;;;;;;5092625;28;20024;-75
2023/10/22 10:47:21;;;;;;;2.90;1.00;;;17.50;99.90;;;;;;5092370;28;20483;-75
2023/10/22 10:50:02;;;;;;;3.28;1.10;;;17.50;99.90;;;;;;5074015;28;20492;-75
2023/10/22 10:52:49;;;;;;;3.45;1.15;;;17.40;99.90;;;;;;5092263;28;20036;-75
2023/10/22 10:55:15;;;;;;;1.90;1.08;;;17.30;99.90;;;;;;5077984;28;20461;-75
2023/10/22 10:57:42;;;;;;;1.83;0.85;;;17.40;99.90;;;;;;5073902;28;20062;-74
2023/10/22 11:00:10;;;;;;;2.45;0.70;;;17.30;99.90;;;;;;5073995;28;20055;-75
2023/10/22 11:02:43;;;;;;;3.10;0.80;;;17.20;99.90;;;;;;5092190;28;20020;-74
2023/10/22 11:05:09;;;;;;;3.75;1.15;;;17.10;99.90;;;;;;5073907;28;20373;-74
2023/10/22 11:07:36;;;;;;;2.15;1.02;;;17.00;99.90;;;;;;5073862;28;20028;-74
2023/10/22 11:10:16;;;;;;;4.88;2.30;;;16.90;99.90;;;;;;5073819;28;20520;-75
2023/10/22 11:12:42;;;;;;;7.55;1.17;;;16.80;99.90;;;;;;5091810;28;20032;-74
2023/10/22 11:15:09;;;;;;;2.72;1.02;;;16.80;99.90;;;;;;5091777;28;20087;-75
2023/10/22 11:17:40;;;;;;;4.28;1.08;;;16.80;99.90;;;;;;5073356;28;20032;-74
2023/10/22 11:20:07;;;;;;;1.83;0.98;;;16.80;99.90;;;;;;5091396;28;20496;-75
2023/10/22 11:22:35;;;;;;;3.90;1.10;;;16.80;99.90;;;;;;5091467;28;20039;-74
2023/10/22 11:25:03;;;;;;;2.20;0.90;;;16.80;99.90;;;;;;5091668;28;20023;-75
2023/10/22 11:27:31;;;;;;;3.05;1.05;;;16.60;99.90;;;;;;5073661;28;20054;-75
2023/10/22 11:29:57;;;;;;;4.40;1.08;;;16.60;99.90;;;;;;5073498;28;20031;-74
2023/10/22 11:32:23;;;;;;;1.42;0.88;;;16.50;99.90;;;;;;5091602;28;20396;-75
2023/10/22 11:35:13;;;;;;;1.73;0.90;;;16.40;99.90;;;;;;5091526;28;20028;-74
2023/10/22 11:37:41;;;;;;;2.85;1.42;;;16.40;99.90;;;;;;5072823;28;20052;-74
2023/10/22 11:40:28;;;;;;;4.13;1.40;;;16.30;99.90;;;;;;5073338;28;20047;-75
2023/10/22 11:43:03;;;;;;;12.57;6.32;;;16.40;99.90;;;;;;5073266;28;20036;-74
2023/10/22 11:45:31;;;;;;;15.70;8.57;;;16.40;99.90;;;;;;5091297;28;20480;-75
2023/10/22 11:48:18;;;;;;;6.22;3.38;;;16.60;99.90;;;;;;5072938;28;20077;-75
2023/10/22 11:50:51;;;;;;;3.35;2.65;;;16.80;99.90;;;;;;5091318;28;20433;-75
2023/10/22 11:53:17;;;;;;;3.40;1.35;;;16.90;99.90;;;;;;5072971;28;20048;-75
2023/10/22 11:55:45;;;;;;;3.03;0.90;;;17.20;99.90;;;;;;5091179;28;20024;-75
2023/10/22 11:58:18;;;;;;;3.72;0.70;;;17.30;99.90;;;;;;5072797;28;20032;-75
2023/10/22 12:00:48;;;;;;;4.03;0.90;;;17.40;99.90;;;;;;5072671;28;20115;-75
2023/10/22 12:03:14;;;;;;;1.58;0.77;;;17.40;99.90;;;;;;5090997;28;20063;-75
2023/10/22 12:05:40;;;;;;;3.45;1.25;;;17.30;99.90;;;;;;5090998;28;20024;-74
2023/10/22 12:08:05;;;;;;;1.75;1.00;;;17.30;99.90;;;;;;5072725;28;20066;-74
2023/10/22 12:10:31;;;;;;;2.13;0.80;;;17.10;99.90;;;;;;5090952;28;20443;-75
2023/10/22 12:12:58;;;;;;;3.17;0.90;;;17.10;99.90;;;;;;5072606;28;20091;-75
2023/10/22 12:15:25;;;;;;;2.40;0.90;;;17.00;99.90;;;;;;5090789;28;20446;-74
2023/10/22 12:17:51;;;;;;;4.20;0.70;;;16.90;99.90;;;;;;5072511;28;20040;-75
2023/10/22 12:20:17;;;;;;;3.17;0.95;;;16.90;99.90;;;;;;5072939;28;20513;-74
2023/10/22 12:22:43;;;;;;;2.15;1.00;;;16.90;99.90;;;;;;5072525;28;20446;-75
2023/10/22 12:25:09;;;;;;;2.58;1.17;;;16.80;99.90;;;;;;5090786;28;20020;-75
2023/10/22 12:27:34;;;;;;;1.52;0.60;;;16.90;99.90;;;;;;5090618;28;21126;-75
2023/10/22 12:30:01;;;;;;;3.22;0.77;;;17.00;99.90;;;;;;5072527;28;20035;-75
2023/10/22 12:32:27;;;;;;;1.98;1.00;;;17.20;99.90;;;;;;5071657;28;20480;-75
2023/10/22 12:34:53;;;;;;;1.92;0.90;;;17.40;99.90;;;;;;5072421;28;20024;-75
2023/10/22 12:37:18;;;;;;;2.55;1.20;;;17.60;99.90;;;;;;5090219;28;20032;-75
2023/10/22 12:39:44;;;;;;;5.45;0.98;;;17.90;99.90;;;;;;5090264;28;20059;-75
2023/10/22 12:42:11;;;;;;;1.63;0.82;;;18.10;99.90;;;;;;5090512;28;20021;-75